createdAt,value
2022-09-03T00:01:39.054Z,99152.72
2022-09-03T00:04:20.690Z,99157.47
2022-09-03T00:07:03.514Z,99158.16
2022-09-03T00:09:41.555Z,99154.03
2022-09-03T00:12:17.086Z,99159.94
2022-09-03T00:14:51.758Z,99164.19
2022-09-03T00:17:26.622Z,99158.94
2022-09-03T00:20:00.073Z,99157.63
2022-09-03T00:22:34.139Z,99160.75
2022-09-03T00:25:07.384Z,99156.97
2022-09-03T00:27:41.441Z,99161.22
2022-09-03T00:30:14.812Z,99161.56
2022-09-03T00:32:52.303Z,99156.63
2022-09-03T00:35:27.956Z,99158.09
2022-09-03T00:37:57.287Z,99158.09
2022-09-03T00:41:02.424Z,99163.00
2022-09-03T00:43:50.367Z,99160.06
2022-09-03T00:46:26.705Z,99160.38
2022-09-03T00:49:26.911Z,99163.31
2022-09-03T00:52:08.204Z,99159.72
2022-09-03T00:54:49.905Z,99162.31
2022-09-03T00:57:36.353Z,99159.34
2022-09-03T01:00:12.642Z,99168.84
2022-09-03T01:03:02.838Z,99167.53
2022-09-03T01:05:48.480Z,99160.66
2022-09-03T01:08:36.980Z,99167.69
2022-09-03T01:11:18.083Z,99173.25
2022-09-03T01:13:55.541Z,99176.66
2022-09-03T01:16:36.429Z,99178.47
2022-09-03T01:19:18.385Z,99170.41
2022-09-03T01:22:11.763Z,99184.13
2022-09-03T01:25:14.110Z,99190.66
2022-09-03T01:28:00.757Z,99204.06
2022-09-03T01:30:34.898Z,99196.84
2022-09-03T01:33:14.214Z,99188.00
2022-09-03T01:35:49.060Z,99186.19
2022-09-03T01:38:28.138Z,99184.88
2022-09-03T01:41:24.059Z,99173.88
2022-09-03T01:44:04.292Z,99177.31
2022-09-03T01:46:39.512Z,99185.97
2022-09-03T01:49:22.865Z,99181.06
2022-09-03T01:52:03.995Z,99173.84
2022-09-03T01:54:59.324Z,99178.09
2022-09-03T01:57:50.259Z,99172.34
2022-09-03T02:00:22.462Z,99172.34
2022-09-03T02:02:53.477Z,99175.13
2022-09-03T02:05:25.376Z,99162.69
2022-09-03T02:08:01.082Z,99174.94
2022-09-03T02:10:33.754Z,99172.50
2022-09-03T02:13:07.970Z,99175.59
2022-09-03T02:15:42.728Z,99171.78
2022-09-03T02:18:19.859Z,99173.25
2022-09-03T02:20:50.191Z,99172.75
2022-09-03T02:23:18.824Z,99176.97
2022-09-03T02:26:00.836Z,99173.19
2022-09-03T02:28:33.361Z,99172.38
2022-09-03T02:31:03.938Z,99163.53
2022-09-03T02:33:40.804Z,99170.56
2022-09-03T02:36:13.237Z,99171.72
2022-09-03T02:38:44.621Z,99165.94
2022-09-03T02:41:15.239Z,99173.78
2022-09-03T02:43:49.166Z,99170.50
2022-09-03T02:46:27.159Z,99178.34
2022-09-03T02:48:56.278Z,99171.13
2022-09-03T02:51:24.877Z,99172.28
2022-09-03T02:53:55.421Z,99165.91
2022-09-03T02:56:26.005Z,99165.06
2022-09-03T02:58:54.437Z,99165.06
2022-09-03T03:01:24.834Z,99164.56
2022-09-03T03:03:53.716Z,99165.72
2022-09-03T03:06:22.573Z,99163.25
2022-09-03T03:08:52.449Z,99167.44
2022-09-03T03:11:25.023Z,99167.44
2022-09-03T03:13:53.995Z,99173.31
2022-09-03T03:16:24.024Z,99164.47
2022-09-03T03:18:52.866Z,99158.94
2022-09-03T03:21:21.519Z,99159.56
2022-09-03T03:23:50.286Z,99160.19
2022-09-03T03:26:21.274Z,99170.00
2022-09-03T03:28:51.293Z,99174.22
2022-09-03T03:31:22.955Z,99169.28
2022-09-03T03:33:56.385Z,99167.94
2022-09-03T03:36:27.636Z,99161.06
2022-09-03T03:38:57.456Z,99160.88
2022-09-03T03:41:31.408Z,99161.50
2022-09-03T03:44:02.402Z,99158.03
2022-09-03T03:46:34.867Z,99167.00
2022-09-03T03:49:06.880Z,99160.94
2022-09-03T03:51:36.132Z,99168.72
2022-09-03T03:54:05.614Z,99171.00
2022-09-03T03:56:35.390Z,99182.75
2022-09-03T03:59:04.218Z,99180.28
2022-09-03T04:01:33.024Z,99188.59
2022-09-03T04:04:01.662Z,99170.63
2022-09-03T04:06:31.441Z,99184.50
2022-09-03T04:08:59.888Z,99176.50
2022-09-03T04:11:28.426Z,99185.94
2022-09-03T04:13:56.812Z,99188.19
2022-09-03T04:16:27.964Z,99184.63
2022-09-03T04:18:57.722Z,99184.09
2022-09-03T04:21:28.777Z,99193.56
2022-09-03T04:23:59.857Z,99189.13
2022-09-03T04:26:32.259Z,99182.78
2022-09-03T04:29:01.987Z,99187.81
2022-09-03T04:31:31.790Z,99192.25
2022-09-03T04:34:00.736Z,99192.56
2022-09-03T04:36:31.595Z,99193.34
2022-09-03T04:39:02.772Z,99188.97
2022-09-03T04:41:33.022Z,99189.78
2022-09-03T04:44:01.584Z,99192.25
2022-09-03T04:46:33.907Z,99188.34
2022-09-03T04:49:03.314Z,99191.31
2022-09-03T04:51:32.268Z,99190.97
2022-09-03T04:54:03.513Z,99197.88
2022-09-03T04:56:34.890Z,99198.38
2022-09-03T04:59:06.081Z,99194.97
2022-09-03T05:01:37.210Z,99201.53
2022-09-03T05:04:06.727Z,99198.16
2022-09-03T05:06:36.978Z,99193.94
2022-09-03T05:09:07.544Z,99192.16
2022-09-03T05:11:35.977Z,99195.66
2022-09-03T05:14:05.896Z,99198.94
2022-09-03T05:16:34.459Z,99195.53
2022-09-03T05:19:06.132Z,99196.53
2022-09-03T05:21:36.141Z,99203.09
2022-09-03T05:24:06.953Z,99204.13
2022-09-03T05:26:40.300Z,99205.66
2022-09-03T05:29:09.545Z,99197.72
2022-09-03T05:31:40.184Z,99196.47
2022-09-03T05:34:10.202Z,99193.22
2022-09-03T05:36:47.165Z,99199.16
2022-09-03T05:39:16.919Z,99192.84
2022-09-03T05:41:45.922Z,99192.06
2022-09-03T05:44:14.525Z,99190.50
2022-09-03T05:46:42.914Z,99189.69
2022-09-03T05:49:11.744Z,99197.59
2022-09-03T05:51:40.612Z,99202.38
2022-09-03T05:54:09.712Z,99188.50
2022-09-03T05:56:41.366Z,99195.59
2022-09-03T05:59:13.827Z,99192.38
2022-09-03T06:01:50.429Z,99183.22
2022-09-03T06:04:21.015Z,99186.84
2022-09-03T06:06:50.099Z,99192.63
2022-09-03T06:09:20.737Z,99195.47
2022-09-03T06:11:52.480Z,99184.53
2022-09-03T06:14:22.148Z,99189.97
2022-09-03T06:16:53.197Z,99194.38
2022-09-03T06:19:22.044Z,99179.78
2022-09-03T06:21:50.693Z,99180.09
2022-09-03T06:24:24.694Z,99182.06
2022-09-03T06:26:56.382Z,99184.00
2022-09-03T06:29:24.791Z,99188.78
2022-09-03T06:31:53.197Z,99186.78
2022-09-03T06:34:22.817Z,99184.31
2022-09-03T06:36:53.799Z,99186.13
2022-09-03T06:39:23.453Z,99193.16
2022-09-03T06:41:53.609Z,99185.91
2022-09-03T06:44:23.376Z,99189.78
2022-09-03T06:46:53.577Z,99181.88
2022-09-03T06:49:22.196Z,99186.94
2022-09-03T06:51:50.657Z,99179.81
2022-09-03T06:54:19.044Z,99173.53
2022-09-03T06:56:47.458Z,99172.81
2022-09-03T06:59:16.717Z,99176.84
2022-09-03T07:01:46.914Z,99181.22
2022-09-03T07:04:19.382Z,99174.31
2022-09-03T07:06:49.532Z,99181.78
2022-09-03T07:09:19.184Z,99188.47
2022-09-03T07:11:49.299Z,99187.09
2022-09-03T07:14:19.815Z,99184.22
2022-09-03T07:16:50.917Z,99188.31
2022-09-03T07:19:19.869Z,99175.19
2022-09-03T07:21:50.697Z,99177.66
2022-09-03T07:24:22.390Z,99175.75
2022-09-03T07:26:51.342Z,99174.13
2022-09-03T07:29:23.795Z,99187.34
2022-09-03T07:31:53.813Z,99181.81
2022-09-03T07:34:26.759Z,99179.38
2022-09-03T07:36:56.129Z,99178.91
2022-09-03T07:39:24.629Z,99186.38
2022-09-03T07:41:53.120Z,99184.75
2022-09-03T07:44:21.594Z,99178.69
2022-09-03T07:46:51.933Z,99172.94
2022-09-03T07:49:23.096Z,99177.97
2022-09-03T07:51:54.157Z,99177.88
2022-09-03T07:54:24.159Z,99176.09
2022-09-03T07:56:52.857Z,99176.31
2022-09-03T07:59:23.110Z,99179.81
2022-09-03T08:01:52.304Z,99175.25
2022-09-03T08:04:23.070Z,99184.31
2022-09-03T08:06:55.719Z,99185.44
2022-09-03T08:09:24.567Z,99187.31
2022-09-03T08:11:53.027Z,99184.81
2022-09-03T08:14:22.146Z,99176.38
2022-09-03T08:16:50.527Z,99170.59
2022-09-03T08:19:23.358Z,99176.13
2022-09-03T08:21:51.859Z,99172.72
2022-09-03T08:24:21.367Z,99176.53
2022-09-03T08:26:52.457Z,99172.84
2022-09-03T08:29:23.583Z,99173.50
2022-09-03T08:31:52.346Z,99173.31
2022-09-03T08:34:22.405Z,99171.50
2022-09-03T08:36:53.190Z,99162.88
2022-09-03T08:39:21.619Z,99169.44
2022-09-03T08:42:20.737Z,99158.63
2022-09-03T08:44:51.745Z,99159.00
2022-09-03T08:47:26.930Z,99158.22
2022-09-03T08:50:01.159Z,99147.09
2022-09-03T08:52:38.490Z,99152.78
2022-09-03T08:55:23.504Z,99153.25
2022-09-03T08:57:58.625Z,99147.09
2022-09-03T09:00:33.958Z,99148.06
2022-09-03T09:03:27.886Z,99155.47
2022-09-03T09:06:08.563Z,99143.25
2022-09-03T09:08:49.688Z,99144.75
2022-09-03T09:11:41.459Z,99141.53
2022-09-03T09:14:19.228Z,99135.06
2022-09-03T09:17:00.797Z,99134.97
2022-09-03T09:19:50.854Z,99136.34
2022-09-03T09:22:31.008Z,99136.53
2022-09-03T09:25:04.536Z,99134.19
2022-09-03T09:27:34.459Z,99134.53
2022-09-03T09:30:10.849Z,99123.59
2022-09-03T09:32:39.279Z,99125.59
2022-09-03T09:35:11.600Z,99126.66
2022-09-03T09:37:51.768Z,99125.78
2022-09-03T09:40:33.968Z,99132.97
2022-09-03T09:43:08.509Z,99133.78
2022-09-03T09:45:37.386Z,99125.41
2022-09-03T09:48:15.318Z,99123.00
2022-09-03T09:50:44.086Z,99125.53
2022-09-03T09:53:18.636Z,99128.44
2022-09-03T09:55:55.496Z,99130.84
2022-09-03T09:58:27.027Z,99117.22
2022-09-03T10:01:19.385Z,99117.59
2022-09-03T10:03:52.603Z,99120.09
2022-09-03T10:06:42.139Z,99123.44
2022-09-03T10:09:15.976Z,99113.81
2022-09-03T10:11:50.934Z,99119.56
2022-09-03T10:14:26.294Z,99117.19
2022-09-03T10:17:05.316Z,99117.97
2022-09-03T10:20:06.425Z,99118.78
2022-09-03T10:22:56.535Z,99121.69
2022-09-03T10:25:39.094Z,99122.88
2022-09-03T10:28:13.326Z,99120.91
2022-09-03T10:31:16.289Z,99113.28
2022-09-03T10:33:52.418Z,99113.84
2022-09-03T10:36:27.429Z,99105.88
2022-09-03T10:39:07.175Z,99111.78
2022-09-03T10:41:55.963Z,99108.28
2022-09-03T10:44:51.640Z,99097.28
2022-09-03T10:47:39.152Z,99098.66
2022-09-03T10:50:16.635Z,99086.25
2022-09-03T10:53:08.590Z,99078.53
2022-09-03T10:55:51.160Z,99085.28
2022-09-03T10:58:56.955Z,99078.09
2022-09-03T11:01:37.455Z,99078.91
2022-09-03T11:04:23.619Z,99082.16
2022-09-03T11:06:56.342Z,99087.75
2022-09-03T11:09:32.812Z,99074.63
2022-09-03T11:12:07.119Z,99077.56
2022-09-03T11:14:44.175Z,99063.34
2022-09-03T11:17:17.941Z,99068.03
2022-09-03T11:19:52.649Z,99056.41
2022-09-03T11:22:23.571Z,99062.63
2022-09-03T11:24:58.546Z,99059.75
2022-09-03T11:27:38.226Z,99060.72
2022-09-03T11:30:11.565Z,99050.78
2022-09-03T11:32:54.265Z,99060.03
2022-09-03T11:35:29.914Z,99054.72
2022-09-03T11:38:02.340Z,99058.13
2022-09-03T11:40:35.792Z,99053.38
2022-09-03T11:43:13.098Z,99058.50
2022-09-03T11:45:43.397Z,99054.59
2022-09-03T11:48:38.010Z,99045.41
2022-09-03T11:51:17.844Z,99046.06
2022-09-03T11:53:57.067Z,99043.06
2022-09-03T11:56:26.697Z,99044.66
2022-09-03T11:59:16.659Z,99062.03
2022-09-03T12:01:53.374Z,99045.66
2022-09-03T12:04:28.349Z,99050.50
2022-09-03T12:07:27.632Z,99059.75
2022-09-03T12:10:24.872Z,99058.47
2022-09-03T12:13:15.262Z,99060.31
2022-09-03T12:16:40.098Z,99066.81
2022-09-03T12:19:21.394Z,99065.97
2022-09-03T12:21:51.225Z,99057.94
2022-09-03T12:24:23.388Z,99072.44
2022-09-03T12:26:51.871Z,99057.88
2022-09-03T12:29:27.675Z,99055.44
2022-09-03T12:31:57.503Z,99053.63
2022-09-03T12:34:27.616Z,99050.97
2022-09-03T12:36:56.924Z,99055.69
2022-09-03T12:42:25.046Z,99036.28
2022-09-03T12:44:53.805Z,99043.13
2022-09-03T12:47:40.368Z,99037.66
2022-09-03T12:50:14.407Z,99043.31
2022-09-03T12:52:47.568Z,99042.25
2022-09-03T12:55:32.312Z,99033.06
2022-09-03T12:58:13.424Z,99025.69
2022-09-03T13:00:50.011Z,99042.16
2022-09-03T13:03:23.780Z,99027.41
2022-09-03T13:05:57.822Z,99020.66
2022-09-03T13:08:30.991Z,99023.31
2022-09-03T13:11:03.906Z,99024.88
2022-09-03T13:13:35.310Z,99030.25
2022-09-03T13:16:31.186Z,99016.75
2022-09-03T13:19:10.836Z,99021.31
2022-09-03T13:21:51.581Z,99023.38
2022-09-03T13:24:41.321Z,99013.81
2022-09-03T13:27:22.967Z,99017.31
2022-09-03T13:30:06.088Z,99012.94
2022-09-03T13:32:52.881Z,99008.69
2022-09-03T13:35:32.454Z,99007.47
2022-09-03T13:38:16.561Z,99003.78
2022-09-03T13:40:51.807Z,99003.41
2022-09-03T13:43:33.670Z,99002.56
2022-09-03T13:46:08.771Z,99008.56
2022-09-03T13:48:58.838Z,99004.00
2022-09-03T13:51:31.931Z,99001.50
2022-09-03T13:54:13.495Z,98997.72
2022-09-03T13:56:57.882Z,98987.47
2022-09-03T13:59:37.443Z,98987.63
2022-09-03T14:02:29.238Z,98993.16
2022-09-03T14:05:08.000Z,98990.47
2022-09-03T14:07:55.448Z,98992.06
2022-09-03T14:10:39.976Z,98994.19
2022-09-03T14:13:22.094Z,98988.75
2022-09-03T14:15:59.212Z,98987.59
2022-09-03T14:18:44.149Z,98967.75
2022-09-03T14:21:19.334Z,98977.81
2022-09-03T14:23:56.189Z,98977.41
2022-09-03T14:26:39.155Z,98974.78
2022-09-03T14:29:17.407Z,98984.44
2022-09-03T14:32:30.232Z,98980.91
2022-09-03T14:35:24.115Z,98985.97
2022-09-03T14:38:31.772Z,98979.97
2022-09-03T14:41:07.916Z,98983.38
2022-09-03T14:44:17.927Z,98978.38
2022-09-03T14:47:04.631Z,98985.91
2022-09-03T14:50:10.774Z,98988.94
2022-09-03T14:53:09.410Z,98990.63
2022-09-03T14:56:15.370Z,98992.09
2022-09-03T14:59:10.662Z,98991.59
2022-09-03T15:01:39.963Z,98993.56
2022-09-03T15:04:50.440Z,98986.56
2022-09-03T15:07:32.241Z,98986.44
2022-09-03T15:10:13.922Z,98986.91
2022-09-03T15:12:47.726Z,98999.88
2022-09-03T15:15:24.421Z,98990.91
2022-09-03T15:18:05.543Z,98989.53
2022-09-03T15:20:46.118Z,98991.41
2022-09-03T15:23:26.962Z,98985.44
2022-09-03T15:26:44.201Z,98980.72
2022-09-03T15:29:38.571Z,98990.56
2022-09-03T15:32:22.231Z,98991.00
2022-09-03T15:35:06.435Z,98996.78
2022-09-03T15:37:46.900Z,98991.97
2022-09-03T15:40:32.331Z,98987.63
2022-09-03T15:43:09.895Z,98987.31
2022-09-03T15:45:43.447Z,98997.47
2022-09-03T15:48:33.562Z,98993.44
2022-09-03T15:51:17.349Z,98985.78
2022-09-03T15:53:55.782Z,98993.06
2022-09-03T15:56:30.184Z,98983.34
2022-09-03T15:59:04.787Z,98986.56
2022-09-03T16:01:51.181Z,98994.66
2022-09-03T16:04:50.587Z,98992.63
2022-09-03T16:07:27.392Z,98999.13
2022-09-03T16:10:26.190Z,99001.53
2022-09-03T16:13:06.958Z,99001.91
2022-09-03T16:15:42.780Z,99005.50
2022-09-03T16:18:23.936Z,99007.09
2022-09-03T16:21:02.579Z,99016.75
2022-09-03T16:23:39.904Z,99010.25
2022-09-03T16:26:15.625Z,99011.41
2022-09-03T16:28:53.267Z,99004.06
2022-09-03T16:31:39.954Z,99015.72
2022-09-03T16:34:22.038Z,99012.06
2022-09-03T16:37:04.639Z,99008.75
2022-09-03T16:39:50.087Z,99014.34
2022-09-03T16:42:29.229Z,99015.03
2022-09-03T16:45:18.115Z,99021.00
2022-09-03T16:48:05.932Z,99015.69
2022-09-03T16:50:53.238Z,99018.44
2022-09-03T16:53:34.028Z,99017.97
2022-09-03T16:56:27.581Z,99019.50
2022-09-03T16:59:08.835Z,99017.75
2022-09-03T17:01:57.603Z,99010.81
2022-09-03T17:05:14.346Z,99017.19
2022-09-03T17:08:05.117Z,99019.94
2022-09-03T17:10:45.332Z,99021.50
2022-09-03T17:13:46.658Z,99018.59
2022-09-03T17:16:30.979Z,99027.81
2022-09-03T17:19:08.733Z,99037.88
2022-09-03T17:21:49.180Z,99035.38
2022-09-03T17:24:45.166Z,99028.81
2022-09-03T17:27:50.860Z,99031.59
2022-09-03T17:30:30.852Z,99037.22
2022-09-03T17:33:35.213Z,99027.84
2022-09-03T17:36:14.379Z,99030.59
2022-09-03T17:39:27.404Z,99030.50
2022-09-03T17:42:01.995Z,99022.44
2022-09-03T17:44:49.045Z,99029.63
2022-09-03T17:47:43.349Z,99035.19
2022-09-03T17:50:24.271Z,99031.97
2022-09-03T17:52:57.921Z,99037.16
2022-09-03T17:55:35.041Z,99040.31
2022-09-03T17:58:14.980Z,99038.66
2022-09-03T18:00:58.042Z,99034.97
2022-09-03T18:03:33.361Z,99039.75
2022-09-03T18:06:07.308Z,99042.97
2022-09-03T18:08:47.149Z,99050.56
2022-09-03T18:11:21.057Z,99053.31
2022-09-03T18:13:59.098Z,99060.09
2022-09-03T18:16:32.754Z,99058.03
2022-09-03T18:19:18.335Z,99058.38
2022-09-03T18:22:07.847Z,99059.88
2022-09-03T18:25:01.952Z,99062.56
2022-09-03T18:27:57.500Z,99068.91
2022-09-03T18:30:44.394Z,99074.44
2022-09-03T18:33:38.429Z,99073.50
2022-09-03T18:36:25.520Z,99074.16
2022-09-03T18:39:11.943Z,99069.22
2022-09-03T18:42:19.210Z,99082.72
2022-09-03T18:45:23.029Z,99088.22
2022-09-03T18:48:30.661Z,99092.56
2022-09-03T18:51:31.326Z,99087.22
2022-09-03T18:54:56.951Z,99083.88
2022-09-03T18:57:45.176Z,99087.81
2022-09-03T19:00:34.179Z,99086.13
2022-09-03T19:03:48.056Z,99084.00
2022-09-03T19:06:51.198Z,99094.00
2022-09-03T19:09:56.044Z,99088.63
2022-09-03T19:13:02.685Z,99090.56
2022-09-03T19:15:53.859Z,99089.31
2022-09-03T19:19:02.580Z,99084.34
2022-09-03T19:21:59.668Z,99079.91
2022-09-03T19:24:49.516Z,99091.53
2022-09-03T19:27:56.965Z,99083.38
2022-09-03T19:30:56.466Z,99089.78
2022-09-03T19:33:54.520Z,99092.94
2022-09-03T19:36:52.133Z,99101.31
2022-09-03T19:40:00.287Z,99105.22
2022-09-03T19:43:02.484Z,99107.16
2022-09-03T19:46:04.108Z,99120.28
2022-09-03T19:49:05.017Z,99112.63
2022-09-03T19:51:58.564Z,99118.97
2022-09-03T19:54:47.822Z,99119.25
2022-09-03T19:57:37.631Z,99114.34
2022-09-03T20:00:29.413Z,99119.91
2022-09-03T20:03:20.961Z,99127.03
2022-09-03T20:06:10.966Z,99126.97
2022-09-03T20:08:57.751Z,99129.69
2022-09-03T20:11:29.845Z,99119.16
2022-09-03T20:14:16.001Z,99125.16
2022-09-03T20:17:00.178Z,99130.25
2022-09-03T20:19:41.351Z,99136.59
2022-09-03T20:22:24.510Z,99138.53
2022-09-03T20:25:14.075Z,99139.16
2022-09-03T20:27:57.111Z,99145.50
2022-09-03T20:30:34.142Z,99156.63
2022-09-03T20:33:19.045Z,99160.91
2022-09-03T20:36:07.018Z,99158.38
2022-09-03T20:39:04.602Z,99154.56
2022-09-03T20:41:44.628Z,99159.72
2022-09-03T20:44:52.710Z,99165.13
2022-09-03T20:47:46.950Z,99165.03
2022-09-03T20:50:32.697Z,99163.78
2022-09-03T20:53:15.388Z,99154.06
2022-09-03T20:55:45.952Z,99158.88
2022-09-03T20:58:22.221Z,99171.63
2022-09-03T21:01:00.997Z,99163.13
2022-09-03T21:03:37.265Z,99152.59
2022-09-03T21:06:21.647Z,99156.50
2022-09-03T21:09:07.634Z,99162.03
2022-09-03T21:11:44.885Z,99157.94
2022-09-03T21:14:33.610Z,99161.47
2022-09-03T21:17:25.822Z,99159.38
2022-09-03T21:20:18.285Z,99153.75
2022-09-03T21:23:02.741Z,99158.19
2022-09-03T21:25:38.080Z,99159.03
2022-09-03T21:28:14.202Z,99159.81
2022-09-03T21:30:49.894Z,99165.44
2022-09-03T21:33:25.142Z,99161.91
2022-09-03T21:36:04.054Z,99168.34
2022-09-03T21:38:37.397Z,99170.00
2022-09-03T21:41:18.388Z,99169.16
2022-09-03T21:43:55.996Z,99174.88
2022-09-03T21:46:32.250Z,99180.13
2022-09-03T21:49:07.673Z,99189.81
2022-09-03T21:51:45.988Z,99204.31
2022-09-03T21:54:21.651Z,99209.19
2022-09-03T21:57:14.188Z,99208.03
2022-09-03T22:00:17.723Z,99210.84
2022-09-03T22:02:47.386Z,99221.00
2022-09-03T22:05:19.089Z,99227.44
2022-09-03T22:08:08.455Z,99228.59
2022-09-03T22:10:45.826Z,99228.69
2022-09-03T22:13:22.542Z,99221.81
2022-09-03T22:15:56.788Z,99221.81
2022-09-03T22:18:29.405Z,99235.03
2022-09-03T22:21:13.406Z,99232.94
2022-09-03T22:24:07.577Z,99240.91
2022-09-03T22:26:49.205Z,99239.25
2022-09-03T22:29:38.131Z,99236.72
2022-09-03T22:32:24.968Z,99240.00
2022-09-03T22:35:20.618Z,99231.91
2022-09-03T22:38:11.498Z,99237.88
2022-09-03T22:40:46.828Z,99244.31
2022-09-03T22:43:38.572Z,99242.69
2022-09-03T22:46:12.950Z,99238.25
2022-09-03T22:49:11.836Z,99240.16
2022-09-03T22:52:04.793Z,99249.28
2022-09-03T22:54:53.062Z,99246.34
2022-09-03T22:57:26.474Z,99249.16
2022-09-03T23:00:03.573Z,99247.41
2022-09-03T23:02:33.542Z,99246.13
2022-09-03T23:05:08.544Z,99246.88
2022-09-03T23:07:54.079Z,99250.75
2022-09-03T23:10:30.274Z,99252.59
2022-09-03T23:13:09.273Z,99257.31
2022-09-03T23:15:42.265Z,99262.81
2022-09-03T23:18:17.852Z,99275.06
2022-09-03T23:20:56.571Z,99269.34
2022-09-03T23:23:31.990Z,99270.41
2022-09-03T23:26:13.696Z,99269.84
2022-09-03T23:28:48.755Z,99272.16
2022-09-03T23:31:25.138Z,99255.59
2022-09-03T23:33:55.906Z,99256.31
2022-09-03T23:37:05.638Z,99271.75
2022-09-03T23:39:54.250Z,99261.44
2022-09-03T23:42:35.606Z,99264.16
2022-09-03T23:45:17.521Z,99257.13
2022-09-03T23:47:55.139Z,99261.81
2022-09-03T23:50:33.223Z,99258.09
2022-09-03T23:53:22.352Z,99261.22
2022-09-03T23:56:08.570Z,99261.59
2022-09-03T23:58:56.590Z,99267.56
